createdAt,value
2022-11-15T00:00:49.263Z,9.747457
2022-11-15T00:01:49.236Z,9.747356
2022-11-15T00:02:49.161Z,9.747498
2022-11-15T00:03:49.194Z,9.747418
2022-11-15T00:04:49.142Z,9.747408
2022-11-15T00:05:49.187Z,9.747395
2022-11-15T00:06:49.183Z,9.747424
2022-11-15T00:07:55.575Z,9.747362
2022-11-15T00:08:51.102Z,9.747364
2022-11-15T00:09:50.112Z,9.747418
2022-11-15T00:10:49.165Z,9.747469
2022-11-15T00:11:49.098Z,9.747416
2022-11-15T00:12:49.084Z,9.747481
2022-11-15T00:13:49.175Z,9.747472
2022-11-15T00:14:49.068Z,9.747413
2022-11-15T00:15:49.097Z,9.747489
2022-11-15T00:22:08.738Z,9.747339
2022-11-15T00:23:08.729Z,9.747378
2022-11-15T00:24:08.722Z,9.747414
2022-11-15T00:25:08.711Z,9.747307
2022-11-15T00:26:08.728Z,9.747434
2022-11-15T00:27:08.694Z,9.747320
2022-11-15T00:28:08.685Z,9.747386
2022-11-15T00:29:08.685Z,9.747383
2022-11-15T00:30:08.667Z,9.747377
2022-11-15T00:31:08.700Z,9.747272
2022-11-15T00:32:08.655Z,9.747352
2022-11-15T00:33:08.649Z,9.747361
2022-11-15T00:34:08.643Z,9.747277
2022-11-15T00:35:08.633Z,9.747267
2022-11-15T00:36:08.658Z,9.747316
2022-11-15T00:37:08.609Z,9.747352
2022-11-15T00:38:09.605Z,9.747253
2022-11-15T00:39:08.603Z,9.747315
2022-11-15T00:40:08.591Z,9.747293
2022-11-15T00:41:09.898Z,9.747377
2022-11-15T00:42:09.573Z,9.747406
2022-11-15T00:43:08.569Z,9.747329
2022-11-15T00:44:08.555Z,9.747352
2022-11-15T00:45:08.555Z,9.747461
2022-11-15T00:46:08.569Z,9.747432
2022-11-15T00:47:08.536Z,9.747418
2022-11-15T00:48:08.536Z,9.747398
2022-11-15T00:49:08.525Z,9.747313
2022-11-15T00:50:10.708Z,9.747328
2022-11-15T00:51:09.538Z,9.747434
2022-11-15T00:52:08.502Z,9.747411
2022-11-15T00:53:08.498Z,9.747349
2022-11-15T00:54:08.485Z,9.747367
2022-11-15T00:55:08.483Z,9.747359
2022-11-15T00:56:08.502Z,9.747364
2022-11-15T00:57:08.461Z,9.747402
2022-11-15T00:58:08.451Z,9.747411
2022-11-15T00:59:08.454Z,9.747343
2022-11-15T01:00:08.439Z,9.747351
2022-11-15T01:01:08.509Z,9.747293
2022-11-15T01:02:08.431Z,9.747339
2022-11-15T01:03:08.423Z,9.747334
2022-11-15T01:04:08.409Z,9.747324
2022-11-15T01:05:08.406Z,9.747347
2022-11-15T01:06:08.423Z,9.747341
2022-11-15T01:07:08.457Z,9.747252
2022-11-15T01:08:08.379Z,9.747342
2022-11-15T01:09:08.377Z,9.747357
2022-11-15T01:10:08.366Z,9.747299
2022-11-15T01:11:08.395Z,9.747340
2022-11-15T01:12:08.355Z,9.747442
2022-11-15T01:13:08.350Z,9.747534
2022-11-15T01:14:08.334Z,9.747458
2022-11-15T01:15:08.333Z,9.747417
2022-11-15T01:16:08.348Z,9.747307
2022-11-15T01:17:08.310Z,9.747346
2022-11-15T01:18:08.311Z,9.747190
2022-11-15T01:19:08.300Z,9.747247
2022-11-15T01:20:08.293Z,9.747291
2022-11-15T01:21:08.307Z,9.747118
2022-11-15T01:22:08.283Z,9.747241
2022-11-15T01:23:08.266Z,9.747249
2022-11-15T01:24:08.268Z,9.747254
2022-11-15T01:25:08.264Z,9.747281
2022-11-15T01:26:08.273Z,9.747348
2022-11-15T01:27:08.234Z,9.747272
2022-11-15T01:28:08.227Z,9.747183
2022-11-15T01:29:08.226Z,9.747222
2022-11-15T01:30:08.214Z,9.747149
2022-11-15T01:31:08.237Z,9.747274
2022-11-15T01:32:08.196Z,9.747411
2022-11-15T01:33:08.188Z,9.747282
2022-11-15T01:34:08.187Z,9.747347
2022-11-15T01:35:08.172Z,9.747304
2022-11-15T01:36:08.197Z,9.747355
2022-11-15T01:37:08.172Z,9.747271
2022-11-15T01:38:08.161Z,9.747087
2022-11-15T01:39:08.147Z,9.747154
2022-11-15T01:40:08.136Z,9.747243
2022-11-15T01:41:08.156Z,9.746966
2022-11-15T01:42:08.115Z,9.747054
2022-11-15T01:43:08.114Z,9.747359
2022-11-15T01:44:08.109Z,9.747346
2022-11-15T01:45:08.095Z,9.747313
2022-11-15T01:46:08.122Z,9.747304
2022-11-15T01:47:08.076Z,9.747331
2022-11-15T01:48:08.065Z,9.747335
2022-11-15T01:49:08.064Z,9.747331
2022-11-15T01:50:08.056Z,9.747170
2022-11-15T01:51:08.071Z,9.747127
2022-11-15T01:52:08.036Z,9.747380
2022-11-15T01:53:08.030Z,9.747458
2022-11-15T01:54:08.020Z,9.747360
2022-11-15T01:55:08.017Z,9.747412
2022-11-15T01:56:08.034Z,9.747362
2022-11-15T01:57:08.002Z,9.747432
2022-11-15T01:58:08.000Z,9.747354
2022-11-15T01:59:07.989Z,9.747284
2022-11-15T02:00:07.981Z,9.747481
2022-11-15T02:01:08.029Z,9.747406
2022-11-15T02:02:07.958Z,9.747489
2022-11-15T02:03:07.957Z,9.747549
2022-11-15T02:04:07.953Z,9.747479
2022-11-15T02:05:07.936Z,9.747284
2022-11-15T02:06:07.955Z,9.747355
2022-11-15T02:07:07.964Z,9.747538
2022-11-15T02:08:07.917Z,9.747270
2022-11-15T02:09:07.912Z,9.747542
2022-11-15T02:10:07.907Z,9.747584
2022-11-15T02:11:07.924Z,9.747695
2022-11-15T02:12:07.898Z,9.747366
2022-11-15T02:13:07.884Z,9.747383
2022-11-15T02:14:07.866Z,9.747669
2022-11-15T02:15:07.869Z,9.747841
2022-11-15T02:16:07.884Z,9.747600
2022-11-15T02:17:07.847Z,9.747518
2022-11-15T02:18:07.833Z,9.747334
2022-11-15T02:19:07.826Z,9.747418
2022-11-15T02:20:07.821Z,9.747402
2022-11-15T02:21:07.809Z,9.747849
2022-11-15T02:22:07.849Z,9.747841
2022-11-15T02:23:07.797Z,9.748400
2022-11-15T02:24:07.790Z,9.748146
2022-11-15T02:25:07.787Z,9.748103
2022-11-15T02:26:07.774Z,9.748053
2022-11-15T02:27:07.795Z,9.747665
2022-11-15T02:28:07.766Z,9.747249
2022-11-15T02:29:07.752Z,9.747329
2022-11-15T02:30:07.758Z,9.747314
2022-11-15T02:31:07.739Z,9.747451
2022-11-15T02:32:07.758Z,9.747417
2022-11-15T02:33:07.722Z,9.747441
2022-11-15T02:34:07.716Z,9.747252
2022-11-15T02:35:07.708Z,9.747264
2022-11-15T02:36:07.700Z,9.747477
2022-11-15T02:37:07.726Z,9.747482
2022-11-15T02:38:07.691Z,9.747330
2022-11-15T02:39:07.680Z,9.747211
2022-11-15T02:40:07.666Z,9.747229
2022-11-15T02:41:07.658Z,9.747336
2022-11-15T02:42:07.677Z,9.747118
2022-11-15T02:43:08.529Z,9.747206
2022-11-15T02:44:08.636Z,9.747178
2022-11-15T02:45:07.626Z,9.747380
2022-11-15T02:46:07.623Z,9.747310
2022-11-15T02:47:07.635Z,9.747427
2022-11-15T02:48:07.606Z,9.747289
2022-11-15T02:49:07.595Z,9.747333
2022-11-15T02:50:07.613Z,9.747343
2022-11-15T02:51:07.580Z,9.747429
2022-11-15T02:52:07.608Z,9.747479
2022-11-15T02:53:07.573Z,9.747417
2022-11-15T02:54:07.579Z,9.747441
2022-11-15T02:55:07.547Z,9.747396
2022-11-15T02:56:07.546Z,9.747375
2022-11-15T02:57:07.570Z,9.747321
2022-11-15T02:58:07.530Z,9.747314
2022-11-15T02:59:07.519Z,9.747304
2022-11-15T03:00:07.520Z,9.747493
2022-11-15T03:01:07.554Z,9.747264
2022-11-15T03:02:07.551Z,9.746840
2022-11-15T03:03:07.493Z,9.747143
2022-11-15T03:04:07.487Z,9.747502
2022-11-15T03:05:07.482Z,9.747392
2022-11-15T03:06:07.473Z,9.747420
2022-11-15T03:07:07.531Z,9.747309
2022-11-15T03:08:07.463Z,9.747469
2022-11-15T03:09:07.448Z,9.747362
2022-11-15T03:10:07.448Z,9.747312
2022-11-15T03:11:07.434Z,9.747409
2022-11-15T03:12:07.428Z,9.747414
2022-11-15T03:13:07.455Z,9.747344
2022-11-15T03:14:07.414Z,9.747442
2022-11-15T03:15:07.412Z,9.747321
2022-11-15T03:16:07.422Z,9.747306
2022-11-15T03:17:07.388Z,9.747361
2022-11-15T03:18:07.399Z,9.747338
2022-11-15T03:19:07.376Z,9.747394
2022-11-15T03:20:07.373Z,9.747460
2022-11-15T03:21:07.398Z,9.747450
2022-11-15T03:22:07.347Z,9.747329
2022-11-15T03:23:07.334Z,9.747339
2022-11-15T03:24:07.325Z,9.747363
2022-11-15T03:25:07.323Z,9.747421
2022-11-15T03:26:07.345Z,9.747304
2022-11-15T03:27:07.304Z,9.747201
2022-11-15T03:28:07.296Z,9.747276
2022-11-15T03:29:07.294Z,9.747256
2022-11-15T03:30:07.317Z,9.747292
2022-11-15T03:31:07.291Z,9.747355
2022-11-15T03:32:07.296Z,9.747323
2022-11-15T03:33:07.262Z,9.747402
2022-11-15T03:34:07.257Z,9.747416
2022-11-15T03:35:07.251Z,9.747425
2022-11-15T03:36:07.241Z,9.747441
2022-11-15T03:37:07.265Z,9.747395
2022-11-15T03:38:07.246Z,9.747322
2022-11-15T03:39:07.216Z,9.747307
2022-11-15T03:40:07.207Z,9.747377
2022-11-15T03:41:07.202Z,9.747430
2022-11-15T03:42:07.221Z,9.747334
2022-11-15T03:43:07.181Z,9.747422
2022-11-15T03:44:07.179Z,9.747298
2022-11-15T03:45:07.163Z,9.747119
2022-11-15T03:46:07.162Z,9.747324
2022-11-15T03:47:07.178Z,9.747370
2022-11-15T03:48:07.143Z,9.747368
2022-11-15T03:49:07.142Z,9.747339
2022-11-15T03:50:07.127Z,9.747381
2022-11-15T03:51:07.123Z,9.747370
2022-11-15T03:52:07.136Z,9.747322
2022-11-15T03:53:07.115Z,9.747283
2022-11-15T03:54:07.105Z,9.747242
2022-11-15T03:55:07.099Z,9.747372
2022-11-15T03:56:07.087Z,9.747356
2022-11-15T03:57:07.097Z,9.747309
2022-11-15T03:58:07.063Z,9.747356
2022-11-15T03:59:07.068Z,9.747396
2022-11-15T04:00:07.047Z,9.747466
2022-11-15T04:01:07.072Z,9.747433
2022-11-15T04:02:07.059Z,9.747412
2022-11-15T04:03:07.049Z,9.747406
2022-11-15T04:04:07.027Z,9.747415
2022-11-15T04:05:07.023Z,9.747365
2022-11-15T04:06:07.002Z,9.747369
2022-11-15T04:07:07.090Z,9.747373
2022-11-15T04:08:06.993Z,9.747322
2022-11-15T04:09:07.000Z,9.747351
2022-11-15T04:10:06.972Z,9.747312
2022-11-15T04:11:06.967Z,9.747360
2022-11-15T04:12:06.985Z,9.747375
2022-11-15T04:13:06.950Z,9.747322
2022-11-15T04:14:06.939Z,9.747397
2022-11-15T04:15:06.955Z,9.747442
2022-11-15T04:16:06.929Z,9.747328
2022-11-15T04:17:06.953Z,9.747728
2022-11-15T04:18:06.919Z,9.747474
2022-11-15T04:19:06.907Z,9.747414
2022-11-15T04:20:06.894Z,9.747348
2022-11-15T04:21:06.894Z,9.747519
2022-11-15T04:22:06.905Z,9.747270
2022-11-15T04:23:06.911Z,9.747391
2022-11-15T04:24:06.863Z,9.747338
2022-11-15T04:25:07.858Z,9.747395
2022-11-15T04:26:06.855Z,9.747478
2022-11-15T04:27:06.841Z,9.747504
2022-11-15T04:28:06.902Z,9.747598
2022-11-15T04:29:06.836Z,9.747519
2022-11-15T04:30:06.841Z,9.747519
2022-11-15T04:31:06.817Z,9.747420
2022-11-15T04:32:06.844Z,9.747396
2022-11-15T04:33:06.796Z,9.747415
2022-11-15T04:34:06.786Z,9.747525
2022-11-15T04:35:06.803Z,9.747507
2022-11-15T04:36:06.774Z,9.747378
2022-11-15T04:37:06.783Z,9.747507
2022-11-15T04:38:06.782Z,9.747561
2022-11-15T04:39:06.755Z,9.747561
2022-11-15T04:40:06.748Z,9.747478
2022-11-15T04:41:06.738Z,9.747687
2022-11-15T04:42:06.745Z,9.747788
2022-11-15T04:43:06.756Z,9.747893
2022-11-15T04:44:06.712Z,9.747718
2022-11-15T04:45:06.705Z,9.747733
2022-11-15T04:46:06.693Z,9.747808
2022-11-15T04:47:06.690Z,9.747673
2022-11-15T04:48:07.706Z,9.747521
2022-11-15T04:49:06.671Z,9.747224
2022-11-15T04:50:06.666Z,9.747460
2022-11-15T04:51:06.652Z,9.747184
2022-11-15T04:52:06.642Z,9.747063
2022-11-15T04:53:06.670Z,9.747339
2022-11-15T04:54:06.630Z,9.747742
2022-11-15T04:55:08.323Z,9.747416
2022-11-15T04:56:07.620Z,9.747325
2022-11-15T04:57:06.609Z,9.747440
2022-11-15T04:58:06.628Z,9.747381
2022-11-15T04:59:06.589Z,9.747374
2022-11-15T05:00:06.581Z,9.747269
2022-11-15T05:01:06.682Z,9.747535
2022-11-15T05:02:06.568Z,9.747536
2022-11-15T05:03:06.595Z,9.747168
2022-11-15T05:04:06.554Z,9.747416
2022-11-15T05:05:06.548Z,9.747418
2022-11-15T05:06:06.538Z,9.747545
2022-11-15T05:07:06.633Z,9.747527
2022-11-15T05:08:06.706Z,9.747464
2022-11-15T05:09:06.521Z,9.747569
2022-11-15T05:10:06.507Z,9.747399
2022-11-15T05:11:06.505Z,9.747491
2022-11-15T05:12:06.517Z,9.747405
2022-11-15T05:13:06.497Z,9.747475
2022-11-15T05:14:06.515Z,9.747440
2022-11-15T05:15:06.475Z,9.747322
2022-11-15T05:16:06.459Z,9.747503
2022-11-15T05:17:07.465Z,9.747454
2022-11-15T05:18:06.456Z,9.747519
2022-11-15T05:19:06.467Z,9.747354
2022-11-15T05:20:06.437Z,9.747396
2022-11-15T05:21:06.425Z,9.747449
2022-11-15T05:22:06.426Z,9.747327
2022-11-15T05:23:06.426Z,9.747490
2022-11-15T05:24:06.465Z,9.747602
2022-11-15T05:25:06.402Z,9.747581
2022-11-15T05:26:09.136Z,9.747712
2022-11-15T05:27:07.389Z,9.747727
2022-11-15T05:28:06.375Z,9.747613
2022-11-15T05:29:06.405Z,9.747512
2022-11-15T05:30:06.357Z,9.747250
2022-11-15T05:31:06.355Z,9.747485
2022-11-15T05:32:06.344Z,9.747405
2022-11-15T05:33:06.341Z,9.747375
2022-11-15T05:34:06.357Z,9.747486
2022-11-15T05:35:06.321Z,9.747431
2022-11-15T05:36:06.320Z,9.747298
2022-11-15T05:37:06.303Z,9.747343
2022-11-15T05:38:06.294Z,9.747441
2022-11-15T05:39:06.316Z,9.747396
2022-11-15T05:40:06.286Z,9.747407
2022-11-15T05:41:06.280Z,9.747316
2022-11-15T05:42:06.275Z,9.747365
2022-11-15T05:43:06.264Z,9.747424
2022-11-15T05:44:06.286Z,9.747423
2022-11-15T05:45:06.247Z,9.747341
2022-11-15T05:46:06.248Z,9.747380
2022-11-15T05:47:06.229Z,9.747395
2022-11-15T05:48:06.224Z,9.747283
2022-11-15T05:49:06.240Z,9.747346
2022-11-15T05:50:06.215Z,9.747376
2022-11-15T05:51:06.201Z,9.747383
2022-11-15T05:52:06.195Z,9.747452
2022-11-15T05:53:06.187Z,9.747478
2022-11-15T05:54:06.199Z,9.747446
2022-11-15T05:55:06.167Z,9.747437
2022-11-15T05:56:06.166Z,9.747480
2022-11-15T05:57:06.157Z,9.747398
2022-11-15T05:58:06.150Z,9.747357
2022-11-15T05:59:06.163Z,9.747329
2022-11-15T06:00:06.129Z,9.747418
2022-11-15T06:01:06.121Z,9.747442
2022-11-15T06:02:06.168Z,9.747429
2022-11-15T06:03:06.107Z,9.747435
2022-11-15T06:04:06.154Z,9.747385
2022-11-15T06:05:06.093Z,9.747375
2022-11-15T06:06:06.087Z,9.747452
2022-11-15T06:07:06.124Z,9.747401
2022-11-15T06:08:06.068Z,9.747643
2022-11-15T06:09:06.087Z,9.747520
2022-11-15T06:10:06.053Z,9.747432
2022-11-15T06:11:06.050Z,9.747388
2022-11-15T06:12:06.041Z,9.747375
2022-11-15T06:13:06.037Z,9.747395
2022-11-15T06:14:06.048Z,9.747319
2022-11-15T06:15:07.019Z,9.747404
2022-11-15T06:16:06.011Z,9.747395
2022-11-15T06:17:38.853Z,9.747420
2022-11-15T06:18:06.045Z,9.747367
2022-11-15T06:19:05.988Z,9.747360
2022-11-15T06:20:06.005Z,9.747371
2022-11-15T06:21:05.974Z,9.747434
2022-11-15T06:22:05.971Z,9.747431
2022-11-15T06:23:05.970Z,9.747305
2022-11-15T06:24:05.955Z,9.747330
2022-11-15T06:25:06.027Z,9.747348
2022-11-15T06:26:05.954Z,9.747364
2022-11-15T06:27:05.953Z,9.747367
2022-11-15T06:28:05.923Z,9.747375
2022-11-15T06:29:05.913Z,9.747426
2022-11-15T06:30:05.953Z,9.747416
2022-11-15T06:31:05.903Z,9.747329
2022-11-15T06:32:05.886Z,9.747427
2022-11-15T06:33:05.886Z,9.747471
2022-11-15T06:34:05.875Z,9.747389
2022-11-15T06:35:05.889Z,9.747479
2022-11-15T06:36:05.859Z,9.747396
2022-11-15T06:37:05.855Z,9.747371
2022-11-15T06:38:05.843Z,9.747324
2022-11-15T06:39:05.839Z,9.747226
2022-11-15T06:40:05.860Z,9.747415
2022-11-15T06:41:05.839Z,9.747486
2022-11-15T06:42:05.828Z,9.747525
2022-11-15T06:43:05.808Z,9.747487
2022-11-15T06:44:05.828Z,9.747542
2022-11-15T06:45:05.819Z,9.747493
2022-11-15T06:46:05.781Z,9.747374
2022-11-15T06:47:05.785Z,9.747325
2022-11-15T06:48:05.762Z,9.747297
2022-11-15T06:49:09.572Z,9.747281
2022-11-15T06:50:06.779Z,9.747366
2022-11-15T06:51:05.743Z,9.747418
2022-11-15T06:52:05.739Z,9.747487
2022-11-15T06:53:05.729Z,9.747339
2022-11-15T06:54:05.754Z,9.747403
2022-11-15T06:55:05.724Z,9.747459
2022-11-15T06:56:05.715Z,9.747372
2022-11-15T06:57:05.703Z,9.747531
2022-11-15T06:58:05.696Z,9.747507
2022-11-15T06:59:05.712Z,9.747235
2022-11-15T07:00:05.675Z,9.747168
2022-11-15T07:01:05.794Z,9.747383
2022-11-15T07:02:05.661Z,9.747496
2022-11-15T07:03:05.674Z,9.747326
2022-11-15T07:04:05.640Z,9.747336
2022-11-15T07:05:05.671Z,9.747562
2022-11-15T07:06:07.443Z,9.747614
2022-11-15T07:07:06.719Z,9.747565
2022-11-15T07:08:05.612Z,9.747615
2022-11-15T07:09:05.615Z,9.747366
2022-11-15T07:10:05.625Z,9.747375
2022-11-15T07:11:05.584Z,9.747515
2022-11-15T07:12:07.901Z,9.747528
2022-11-15T07:13:06.572Z,9.747544
2022-11-15T07:14:05.565Z,9.747536
2022-11-15T07:15:05.606Z,9.747418
2022-11-15T07:16:05.554Z,9.747510
2022-11-15T07:17:05.559Z,9.747680
2022-11-15T07:18:05.545Z,9.747416
2022-11-15T07:19:05.542Z,9.747383
2022-11-15T07:20:05.574Z,9.747386
2022-11-15T07:21:05.524Z,9.747371
2022-11-15T07:22:05.508Z,9.747425
2022-11-15T07:23:05.507Z,9.747246
2022-11-15T07:24:05.494Z,9.747048
2022-11-15T07:25:05.524Z,9.747294
2022-11-15T07:26:05.509Z,9.747070
2022-11-15T07:27:05.475Z,9.747487
2022-11-15T07:28:05.464Z,9.747337
2022-11-15T07:29:05.448Z,9.747447
2022-11-15T07:30:05.536Z,9.747521
2022-11-15T07:31:05.455Z,9.747587
2022-11-15T07:32:05.454Z,9.747728
2022-11-15T07:33:05.423Z,9.747500
2022-11-15T07:34:05.416Z,9.747324
2022-11-15T07:35:05.449Z,9.747562
2022-11-15T07:36:05.420Z,9.747546
2022-11-15T07:37:05.393Z,9.747474
2022-11-15T07:38:05.389Z,9.747622
2022-11-15T07:39:05.381Z,9.747779
2022-11-15T07:40:05.403Z,9.747937
2022-11-15T07:41:05.363Z,9.747900
2022-11-15T07:42:05.372Z,9.747888
2022-11-15T07:43:05.352Z,9.747769
2022-11-15T07:44:05.343Z,9.747752
2022-11-15T07:45:05.360Z,9.747478
2022-11-15T07:46:05.326Z,9.747226
2022-11-15T07:47:05.320Z,9.747541
2022-11-15T07:48:05.326Z,9.747516
2022-11-15T07:49:05.357Z,9.747549
2022-11-15T07:50:05.323Z,9.747439
2022-11-15T07:51:08.776Z,9.747627
2022-11-15T07:52:06.280Z,9.747663
2022-11-15T07:53:05.271Z,9.747484
2022-11-15T07:54:05.277Z,9.747588
2022-11-15T07:55:05.265Z,9.747478
2022-11-15T07:56:05.275Z,9.747614
2022-11-15T07:57:07.526Z,9.747620
2022-11-15T07:58:06.237Z,9.747442
2022-11-15T07:59:05.252Z,9.747317
2022-11-15T08:00:05.257Z,9.747363
2022-11-15T08:01:05.395Z,9.747411
2022-11-15T08:02:05.283Z,9.747401
2022-11-15T08:03:05.214Z,9.747426
2022-11-15T08:04:05.203Z,9.747556
2022-11-15T08:05:05.212Z,9.747767
2022-11-15T08:06:05.223Z,9.747596
2022-11-15T08:07:05.228Z,9.747548
2022-11-15T08:08:05.164Z,9.747487
2022-11-15T08:09:05.156Z,9.747554
2022-11-15T08:10:05.246Z,9.747526
2022-11-15T08:11:05.191Z,9.747712
2022-11-15T08:12:05.138Z,9.747486
2022-11-15T08:13:05.192Z,9.747519
2022-11-15T08:14:05.120Z,9.747595
2022-11-15T08:15:05.117Z,9.747527
2022-11-15T08:16:05.125Z,9.747561
2022-11-15T08:17:05.097Z,9.747646
2022-11-15T08:18:05.104Z,9.747610
2022-11-15T08:19:05.077Z,9.747582
2022-11-15T08:20:05.077Z,9.747460
2022-11-15T08:21:05.074Z,9.747480
2022-11-15T08:22:06.053Z,9.747523
2022-11-15T08:23:05.066Z,9.747499
2022-11-15T08:24:05.033Z,9.747584
2022-11-15T08:25:05.029Z,9.747544
2022-11-15T08:26:05.062Z,9.747560
2022-11-15T08:27:05.101Z,9.747476
2022-11-15T08:28:05.008Z,9.747458
2022-11-15T08:29:05.025Z,9.747521
2022-11-15T08:30:05.007Z,9.747529
2022-11-15T08:31:05.004Z,9.747501
2022-11-15T08:32:04.985Z,9.747514
2022-11-15T08:33:04.963Z,9.747590
2022-11-15T08:34:04.980Z,9.747564
2022-11-15T08:35:04.947Z,9.747527
2022-11-15T08:36:04.981Z,9.747376
2022-11-15T08:37:04.947Z,9.747433
2022-11-15T08:38:04.926Z,9.747496
2022-11-15T08:39:04.916Z,9.747404
2022-11-15T08:40:04.906Z,9.747210
2022-11-15T08:41:04.932Z,9.747314
2022-11-15T08:42:04.904Z,9.747319
2022-11-15T08:43:04.915Z,9.747411
2022-11-15T08:44:04.885Z,9.747500
2022-11-15T08:45:04.875Z,9.747515
2022-11-15T08:46:04.905Z,9.747563
2022-11-15T08:47:04.887Z,9.747411
2022-11-15T08:48:04.879Z,9.747498
2022-11-15T08:49:04.900Z,9.747419
2022-11-15T08:50:04.834Z,9.747544
2022-11-15T08:51:04.850Z,9.747416
2022-11-15T08:52:04.822Z,9.747392
2022-11-15T08:53:04.812Z,9.747503
2022-11-15T08:54:04.804Z,9.747476
2022-11-15T08:55:04.803Z,9.747419
2022-11-15T08:56:04.814Z,9.747508
2022-11-15T08:57:04.785Z,9.747491
2022-11-15T08:58:04.782Z,9.747463
2022-11-15T08:59:04.822Z,9.747469
2022-11-15T09:00:04.761Z,9.747421
2022-11-15T09:01:04.817Z,9.747443
2022-11-15T09:02:04.842Z,9.747413
2022-11-15T09:03:04.733Z,9.747540
2022-11-15T09:04:04.731Z,9.747468
2022-11-15T09:05:04.723Z,9.747349
2022-11-15T09:06:04.765Z,9.747455
2022-11-15T09:07:04.783Z,9.747352
2022-11-15T09:08:25.050Z,9.747374
2022-11-15T09:09:06.686Z,9.747408
2022-11-15T09:10:04.686Z,9.747514
2022-11-15T09:11:04.672Z,9.747579
2022-11-15T09:12:04.696Z,9.747356
2022-11-15T09:13:04.668Z,9.747439
2022-11-15T09:14:04.655Z,9.747459
2022-11-15T09:15:04.646Z,9.747245
2022-11-15T09:16:04.640Z,9.747378
2022-11-15T09:17:04.652Z,9.747430
2022-11-15T09:18:04.676Z,9.747093
2022-11-15T09:19:08.944Z,9.747250
2022-11-15T09:20:06.600Z,9.747360
2022-11-15T09:21:04.584Z,9.747561
2022-11-15T09:22:04.606Z,9.747703
2022-11-15T09:23:04.570Z,9.747697
2022-11-15T09:24:04.562Z,9.747598
2022-11-15T09:25:08.544Z,9.747442
2022-11-15T09:26:06.543Z,9.747295
2022-11-15T09:27:04.575Z,9.747364
2022-11-15T09:28:04.532Z,9.747456
2022-11-15T09:29:04.538Z,9.747469
2022-11-15T09:30:04.514Z,9.747467
2022-11-15T09:31:04.525Z,9.747579
2022-11-15T09:32:04.519Z,9.747483
2022-11-15T09:33:04.566Z,9.747600
2022-11-15T09:34:04.496Z,9.747579
2022-11-15T09:35:04.487Z,9.747590
2022-11-15T09:36:04.500Z,9.747494
2022-11-15T09:37:04.464Z,9.747431
2022-11-15T09:38:04.463Z,9.747411
2022-11-15T09:39:04.450Z,9.747591
2022-11-15T09:40:04.465Z,9.747601
2022-11-15T09:41:04.472Z,9.747511
2022-11-15T09:42:05.424Z,9.747476
2022-11-15T09:43:04.454Z,9.747423
2022-11-15T09:44:04.409Z,9.747480
2022-11-15T09:45:04.396Z,9.747549
2022-11-15T09:46:04.424Z,9.747545
2022-11-15T09:47:04.411Z,9.747371
2022-11-15T09:48:04.543Z,9.747291
2022-11-15T09:49:04.415Z,9.747287
2022-11-15T09:50:04.445Z,9.747266
2022-11-15T09:51:04.367Z,9.747464
2022-11-15T09:52:04.386Z,9.747450
2022-11-15T09:53:04.365Z,9.747380
2022-11-15T09:55:05.224Z,9.747451
2022-11-15T09:55:06.324Z,9.747421
2022-11-15T09:56:04.316Z,9.747472
2022-11-15T09:57:04.332Z,9.747430
2022-11-15T09:58:04.332Z,9.747324
2022-11-15T09:59:04.291Z,9.747293
2022-11-15T10:00:30.842Z,9.747491
2022-11-15T10:01:06.376Z,9.747328
2022-11-15T10:02:04.307Z,9.747330
2022-11-15T10:03:04.302Z,9.747339
2022-11-15T10:04:07.815Z,9.747306
2022-11-15T10:05:06.247Z,9.747336
2022-11-15T10:06:04.245Z,9.747382
2022-11-15T10:07:04.311Z,9.747054
2022-11-15T10:08:04.227Z,9.747185
2022-11-15T10:09:04.222Z,9.747400
2022-11-15T10:10:04.302Z,9.747300
2022-11-15T10:12:06.223Z,9.747140
2022-11-15T10:13:04.186Z,9.747283
2022-11-15T10:14:04.181Z,9.747275
2022-11-15T10:15:04.172Z,9.747348
2022-11-15T10:16:04.198Z,9.747492
2022-11-15T10:17:04.151Z,9.747263
2022-11-15T10:18:04.159Z,9.747224
2022-11-15T10:19:04.143Z,9.747098
2022-11-15T10:20:06.235Z,9.747342
2022-11-15T10:21:05.161Z,9.747231
2022-11-15T10:22:04.121Z,9.747238
2022-11-15T10:23:04.118Z,9.747387
2022-11-15T10:24:04.103Z,9.747292
2022-11-15T10:25:04.106Z,9.747257
2022-11-15T10:26:07.031Z,9.747234
2022-11-15T10:27:05.082Z,9.747050
2022-11-15T10:28:04.076Z,9.747249
2022-11-15T10:29:04.067Z,9.747248
2022-11-15T10:30:04.059Z,9.747212
2022-11-15T10:31:04.083Z,9.747233
2022-11-15T10:32:04.070Z,9.747267
2022-11-15T10:33:04.037Z,9.747297
2022-11-15T10:34:04.024Z,9.747347
2022-11-15T10:35:04.029Z,9.747270
2022-11-15T10:36:04.042Z,9.747250
2022-11-15T10:37:04.013Z,9.747100
2022-11-15T10:38:04.006Z,9.747195
2022-11-15T10:39:04.859Z,9.747392
2022-11-15T10:40:04.830Z,9.747365
2022-11-15T10:41:03.974Z,9.747419
2022-11-15T10:42:10.167Z,9.747388
2022-11-15T10:43:05.985Z,9.747576
2022-11-15T10:44:03.948Z,9.747497
2022-11-15T10:45:03.949Z,9.747482
2022-11-15T10:46:24.687Z,9.747350
2022-11-15T10:47:05.957Z,9.747395
2022-11-15T10:48:03.919Z,9.747498
2022-11-15T10:49:03.920Z,9.747406
2022-11-15T10:50:03.915Z,9.747346
2022-11-15T10:51:03.890Z,9.747426
2022-11-15T10:52:03.908Z,9.747437
2022-11-15T10:53:03.904Z,9.747467
2022-11-15T10:54:07.763Z,9.747429
2022-11-15T10:55:04.867Z,9.747412
2022-11-15T10:56:03.873Z,9.747402
2022-11-15T10:57:03.901Z,9.747602
2022-11-15T10:58:03.838Z,9.747505
2022-11-15T10:59:03.831Z,9.747478
2022-11-15T11:00:03.850Z,9.747408
2022-11-15T11:01:03.847Z,9.747518
2022-11-15T11:02:03.888Z,9.747363
2022-11-15T11:03:03.805Z,9.747465
2022-11-15T11:04:03.794Z,9.747589
2022-11-15T11:05:03.782Z,9.747648
2022-11-15T11:06:03.777Z,9.747685
2022-11-15T11:07:03.868Z,9.747460
2022-11-15T11:08:03.786Z,9.747474
2022-11-15T11:09:03.788Z,9.747548
2022-11-15T11:10:13.307Z,9.747443
2022-11-15T11:11:04.820Z,9.747559
2022-11-15T11:12:03.785Z,9.747475
2022-11-15T11:13:03.731Z,9.747516
2022-11-15T11:14:03.740Z,9.747598
2022-11-15T11:15:03.748Z,9.747507
2022-11-15T11:16:03.719Z,9.747392
2022-11-15T11:17:03.750Z,9.747398
2022-11-15T11:18:03.700Z,9.747489
2022-11-15T11:19:03.691Z,9.747288
2022-11-15T11:20:03.695Z,9.747427
2022-11-15T11:21:03.675Z,9.747633
2022-11-15T11:22:03.703Z,9.747535
2022-11-15T11:23:03.648Z,9.747403
2022-11-15T11:24:03.652Z,9.747452
2022-11-15T11:25:03.637Z,9.747455
2022-11-15T11:26:03.656Z,9.747385
2022-11-15T11:27:03.613Z,9.747396
2022-11-15T11:28:03.649Z,9.747467
2022-11-15T11:29:03.600Z,9.747502
2022-11-15T11:30:03.590Z,9.747616
2022-11-15T11:31:03.584Z,9.747450
2022-11-15T11:32:03.582Z,9.747576
2022-11-15T11:33:03.662Z,9.747401
2022-11-15T11:34:03.568Z,9.747270
2022-11-15T11:35:03.579Z,9.747375
2022-11-15T11:36:03.571Z,9.747311
2022-11-15T11:37:03.549Z,9.747318
2022-11-15T11:38:03.566Z,9.747388
2022-11-15T11:39:03.536Z,9.747344
2022-11-15T11:40:09.115Z,9.747455
2022-11-15T11:41:05.568Z,9.747508
2022-11-15T11:42:03.673Z,9.747277
2022-11-15T11:43:03.499Z,9.747425
2022-11-15T11:44:03.495Z,9.747370
2022-11-15T11:45:03.496Z,9.747367
2022-11-15T11:46:03.482Z,9.747459
2022-11-15T11:47:03.731Z,9.747469
2022-11-15T11:48:03.485Z,9.747414
2022-11-15T11:49:03.460Z,9.747447
2022-11-15T11:50:03.444Z,9.747418
2022-11-15T11:51:03.476Z,9.747311